In Rescue
 
Open Full Screen Window  High Contrast Mode
Wind Gusting 00 knots
10
March 01, 2024 3:42 PM CST
Weather Information
Wind Direction
  280 °
Wind Speed
  10 kt (12 mph)
Wind Gust
  00 kt (0 mph)
Altimeter
29.67 in
Visibility
10 SM
Temperature
12° C
54° F
Dewpoint
04° C
39° F
Humidity
58%
Sky Condition
Clear
VFR

METAR KJKJ 012142Z AUTO 28010KT 10SM CLR 12/04 A2967 RMK AO2

FAA Disclaimer: The data displayed is for advisory purposes only and is not to be used for flight planning or operations.